»·PEaware :: N485V KMHV-KSMX

N485V :: KMHV-KSMX

FLIGHT INFORMATION

Flight Status: Arrived
Operator: Privately registered:
United States
More flights under this callsign
Pilot: Daniel F. (15396)
Aircraft: Unknown
(K100)
More flights by this aircraft type
Origin: KMHV Mojave
United States
Destination: KSMX Santa Maria Pub/Capt Hancock
United States
More flights between these airports :: More routes between these airports
Route:
File this flight plan on PilotEdge
Remarks:
Altitude:
(Current/Filed)
8,500ft
Speed:
(Current/Filed)
0kts
Departed: 27-Oct-23 07:16 AM
Arrived: 27-Oct-23 07:58 AM
Distance/Time
Traveled:
113nm/0:42
Distance/Time
To Go:
Arrived

Flight Plot

Page will automatically refresh every two minutes.

Flight plan parsing failed; only flown route is shown


Map Options




Map Legend


Flown Route
Filed Route
Departure Airport
Arrival Airport
Navaid (VOR, NDB)
Fix

Horizontal Profiles

Position Reports

Time Latitude Longitude Heading Altitude Ground
Speed
27-Oct-23 07:08 35.057189 -118.156298 270 2779ft 0kts
27-Oct-23 07:09 35.057189 -118.156298 270 2779ft 0kts
27-Oct-23 07:10 35.057189 -118.156303 269 2786ft 0kts
27-Oct-23 07:11 35.057616 -118.153050 90 2760ft 20kts
27-Oct-23 07:12 35.057611 -118.144902 89 2747ft 25kts
27-Oct-23 07:13 35.058477 -118.142562 359 2741ft 0kts
27-Oct-23 07:14 35.059193 -118.143590 270 2743ft 23kts
27-Oct-23 07:15 35.056563 -118.180314 253 3717ft 141kts
27-Oct-23 07:16 35.052829 -118.228742 266 5239ft 143kts
27-Oct-23 07:17 35.049966 -118.276424 266 6717ft 138kts
27-Oct-23 07:18 35.047205 -118.322274 266 8194ft 134kts
27-Oct-23 07:19 35.044259 -118.372915 267 8558ft 166kts
27-Oct-23 07:20 35.040759 -118.430558 266 8574ft 173kts
27-Oct-23 07:21 35.037001 -118.490141 266 8564ft 176kts
27-Oct-23 07:22 35.033396 -118.550975 266 8495ft 178kts
27-Oct-23 07:23 35.029640 -118.610801 267 8488ft 177kts
27-Oct-23 07:24 35.025869 -118.670867 267 8479ft 178kts
27-Oct-23 07:25 35.022053 -118.731291 267 8468ft 178kts
27-Oct-23 07:26 35.018210 -118.791471 267 8456ft 178kts
27-Oct-23 07:27 35.014340 -118.851731 267 8439ft 178kts
27-Oct-23 07:28 35.010445 -118.911844 267 8438ft 178kts
27-Oct-23 07:29 35.006515 -118.972202 267 8437ft 178kts
27-Oct-23 07:30 35.002515 -119.032670 267 8433ft 178kts
27-Oct-23 07:31 34.998530 -119.093021 267 8438ft 179kts
27-Oct-23 07:32 34.994500 -119.153149 267 8518ft 176kts
27-Oct-23 07:33 34.990450 -119.213514 268 8520ft 179kts
27-Oct-23 07:34 34.986335 -119.274188 268 8525ft 179kts
27-Oct-23 07:35 34.982198 -119.334682 268 8531ft 179kts
27-Oct-23 07:36 34.978027 -119.395462 268 8533ft 180kts
27-Oct-23 07:37 34.973806 -119.456226 268 8537ft 180kts
27-Oct-23 07:38 34.969604 -119.517030 268 8544ft 180kts
27-Oct-23 07:39 34.965262 -119.578075 268 8540ft 179kts
27-Oct-23 07:40 34.960994 -119.638520 268 8538ft 179kts
27-Oct-23 07:41 34.956680 -119.699045 268 8539ft 179kts
27-Oct-23 07:42 34.952317 -119.759758 268 8516ft 179kts
27-Oct-23 07:43 34.947943 -119.820273 268 8515ft 179kts
27-Oct-23 07:44 34.943527 -119.880905 269 8515ft 180kts
27-Oct-23 07:45 34.939043 -119.941880 269 8514ft 181kts
27-Oct-23 07:46 34.934487 -120.003303 269 8508ft 181kts
27-Oct-23 07:47 34.930273 -120.060463 270 7852ft 160kts
27-Oct-23 07:48 34.926261 -120.113792 270 7071ft 158kts
27-Oct-23 07:49 34.922197 -120.167525 270 6296ft 157kts
27-Oct-23 07:50 34.918074 -120.222196 269 5502ft 166kts
27-Oct-23 07:51 34.904084 -120.275622 238 4711ft 176kts
27-Oct-23 07:52 34.875869 -120.324193 238 3905ft 175kts
27-Oct-23 07:53 34.864043 -120.375105 284 3031ft 143kts
27-Oct-23 07:54 34.869869 -120.409001 295 1699ft 74kts
27-Oct-23 07:55 34.879929 -120.430141 306 800ft 71kts
27-Oct-23 07:56 34.893164 -120.446374 312 291ft 64kts
27-Oct-23 07:57 34.898055 -120.450286 359 250ft 0kts
27-Oct-23 07:58 34.896891 -120.448311 134 255ft 13kts
27-Oct-23 07:59 34.896814 -120.445921 41 257ft 0kts
27-Oct-23 08:00 34.896814 -120.445921 41 257ft 0kts
27-Oct-23 08:01 34.896814 -120.445921 41 257ft 0kts
27-Oct-23 08:02 34.896814 -120.445921 41 257ft 0kts
27-Oct-23 08:03 34.896814 -120.445921 41 257ft 0kts
27-Oct-23 08:04 34.896814 -120.445921 41 229ft 0kts
27-Oct-23 08:05 34.896814 -120.445921 41 229ft 0kts
27-Oct-23 08:06 34.896814 -120.445921 41 229ft 0kts
27-Oct-23 08:08 34.896814 -120.445921 41 229ft 0kts
27-Oct-23 08:09 34.896814 -120.445921 41 229ft 0kts
27-Oct-23 08:10 34.896814 -120.445921 41 257ft 0kts
27-Oct-23 08:11 34.896814 -120.445921 41 257ft 0kts
27-Oct-23 08:12 34.896814 -120.445921 41 257ft 0kts

Navigation Log

Ident Type
Flight plan parsing failed, navigation log unavailable